createdAt,value
2023-02-15T00:00:28.977Z,104.67
2023-02-15T00:02:55.856Z,148.90
2023-02-15T00:05:22.735Z,214.07
2023-02-15T00:07:49.587Z,120.27
2023-02-15T00:10:17.785Z,146.70
2023-02-15T00:12:46.780Z,105.50
2023-02-15T00:15:16.214Z,151.87
2023-02-15T00:17:45.442Z,188.00
2023-02-15T00:20:14.951Z,109.67
2023-02-15T00:22:44.273Z,119.30
2023-02-15T00:25:13.441Z,234.57
2023-02-15T00:27:40.364Z,123.77
2023-02-15T00:30:08.154Z,157.87
2023-02-15T00:32:39.636Z,114.30
2023-02-15T00:35:10.225Z,128.37
2023-02-15T00:37:37.120Z,165.27
2023-02-15T00:40:07.385Z,176.23
2023-02-15T00:42:34.354Z,146.30
2023-02-15T00:45:01.209Z,113.63
2023-02-15T00:47:28.169Z,268.83
2023-02-15T00:49:55.085Z,287.37
2023-02-15T00:52:22.011Z,227.77
2023-02-15T00:54:48.924Z,334.37
2023-02-15T00:57:15.854Z,211.17
2023-02-15T00:59:42.710Z,215.07
2023-02-15T01:02:09.680Z,328.33
2023-02-15T01:04:39.014Z,132.20
2023-02-15T01:07:05.963Z,128.73
2023-02-15T01:09:32.807Z,179.23
2023-02-15T01:12:01.987Z,231.43
2023-02-15T01:14:35.986Z,401.70
2023-02-15T01:17:05.868Z,154.37
2023-02-15T01:19:36.261Z,164.47
2023-02-15T01:22:05.483Z,275.73
2023-02-15T01:24:32.861Z,182.47
2023-02-15T01:27:02.039Z,263.17
2023-02-15T01:29:28.960Z,257.43
2023-02-15T01:31:56.036Z,311.77
2023-02-15T01:34:22.977Z,268.73
2023-02-15T01:36:49.875Z,367.00
2023-02-15T01:39:19.303Z,228.73
2023-02-15T01:41:49.116Z,332.27
2023-02-15T01:44:44.043Z,320.80
2023-02-15T01:47:20.792Z,275.40
2023-02-15T01:49:48.919Z,221.23
2023-02-15T01:52:19.922Z,119.30
2023-02-15T01:54:48.820Z,416.67
2023-02-15T01:57:22.500Z,284.53
2023-02-15T01:59:54.960Z,214.87
2023-02-15T02:02:25.953Z,260.27
2023-02-15T02:05:14.285Z,262.57
2023-02-15T02:07:46.130Z,234.73
2023-02-15T02:10:19.761Z,283.23
2023-02-15T02:12:54.022Z,295.93
2023-02-15T02:15:29.508Z,95.87
2023-02-15T02:18:43.698Z,166.73
2023-02-15T02:21:59.079Z,172.10
2023-02-15T02:24:53.664Z,128.90
2023-02-15T02:27:41.020Z,212.93
2023-02-15T02:30:44.657Z,247.40
2023-02-15T02:33:35.985Z,89.57
2023-02-15T02:36:51.194Z,262.97
2023-02-15T02:39:45.924Z,152.43
2023-02-15T02:42:25.054Z,184.47
2023-02-15T02:45:00.644Z,118.03
2023-02-15T02:47:52.788Z,130.83
2023-02-15T02:50:29.142Z,117.30
2023-02-15T02:53:02.154Z,86.77
2023-02-15T02:55:43.272Z,97.43
2023-02-15T02:58:34.831Z,98.23
2023-02-15T03:01:15.936Z,125.07
2023-02-15T03:03:52.048Z,168.00
2023-02-15T03:06:34.151Z,194.13
2023-02-15T03:09:42.878Z,189.87
2023-02-15T03:12:20.324Z,171.53
2023-02-15T03:14:53.152Z,114.73
2023-02-15T03:17:28.517Z,251.00
2023-02-15T03:20:03.562Z,144.03
2023-02-15T03:22:47.601Z,139.03
2023-02-15T03:25:28.003Z,167.47
2023-02-15T03:28:02.514Z,347.47
2023-02-15T03:30:34.596Z,468.13
2023-02-15T03:33:08.384Z,290.07
2023-02-15T03:36:00.603Z,330.13
2023-02-15T03:38:41.788Z,225.13
2023-02-15T03:41:11.416Z,243.10
2023-02-15T03:44:00.704Z,126.60
2023-02-15T03:47:04.963Z,247.70
2023-02-15T03:49:53.303Z,167.17
2023-02-15T03:52:24.724Z,189.33
2023-02-15T03:54:52.406Z,136.57
2023-02-15T03:57:45.846Z,206.33
2023-02-15T04:00:43.152Z,217.83
2023-02-15T04:03:16.300Z,380.20
2023-02-15T04:05:45.121Z,223.53
2023-02-15T04:08:13.543Z,267.80
2023-02-15T04:10:57.172Z,162.67
2023-02-15T04:13:31.086Z,87.20
2023-02-15T04:16:07.977Z,255.00
2023-02-15T04:19:00.622Z,180.60
2023-02-15T04:21:50.303Z,149.53
2023-02-15T04:24:39.014Z,248.30
2023-02-15T04:27:11.222Z,276.77
2023-02-15T04:29:38.063Z,396.70
2023-02-15T04:32:05.257Z,257.60
2023-02-15T04:34:32.200Z,149.53
2023-02-15T04:36:59.131Z,314.73
2023-02-15T04:39:28.574Z,246.27
2023-02-15T04:41:57.833Z,122.27
2023-02-15T04:44:25.349Z,169.33
2023-02-15T04:46:52.252Z,126.70
2023-02-15T04:49:22.207Z,151.00
2023-02-15T04:51:51.672Z,182.80
2023-02-15T04:54:21.116Z,132.23
2023-02-15T04:56:48.065Z,84.87
2023-02-15T04:59:17.029Z,167.40
2023-02-15T05:01:46.533Z,93.73
2023-02-15T05:04:21.195Z,117.73
2023-02-15T05:06:48.271Z,91.17
2023-02-15T05:09:17.725Z,97.50
2023-02-15T05:11:47.623Z,97.07
2023-02-15T05:14:17.846Z,217.07
2023-02-15T05:16:44.702Z,45.80
2023-02-15T05:19:11.613Z,46.40
2023-02-15T05:21:41.580Z,145.77
2023-02-15T05:24:34.136Z,58.87
2023-02-15T05:27:22.136Z,326.13
2023-02-15T05:29:49.281Z,235.30
2023-02-15T05:32:18.922Z,317.00
2023-02-15T05:34:45.806Z,292.57
2023-02-15T05:37:12.742Z,336.77
2023-02-15T05:39:39.587Z,214.60
2023-02-15T05:42:06.996Z,219.30
2023-02-15T05:44:36.021Z,359.80
2023-02-15T05:47:03.980Z,266.70
2023-02-15T05:49:33.372Z,155.20
2023-02-15T05:52:03.926Z,365.03
2023-02-15T05:54:30.867Z,233.90
2023-02-15T05:56:57.869Z,173.20
2023-02-15T05:59:24.806Z,276.57
2023-02-15T06:01:51.785Z,291.13
2023-02-15T06:04:21.109Z,249.77
2023-02-15T06:06:48.062Z,406.83
2023-02-15T06:09:15.343Z,220.43
2023-02-15T06:11:42.243Z,310.00
2023-02-15T06:14:11.619Z,90.87
2023-02-15T06:16:43.065Z,244.63
2023-02-15T06:19:14.816Z,100.50
2023-02-15T06:21:41.708Z,251.50
2023-02-15T06:24:11.131Z,186.00
2023-02-15T06:26:37.978Z,237.20
2023-02-15T06:29:07.314Z,176.60
2023-02-15T06:31:34.392Z,301.63
2023-02-15T06:34:03.937Z,314.27
2023-02-15T06:36:36.393Z,154.70
2023-02-15T06:39:04.140Z,246.43
2023-02-15T06:41:33.329Z,228.73
2023-02-15T06:44:00.312Z,367.97
2023-02-15T06:46:27.582Z,388.90
2023-02-15T06:48:54.499Z,217.73
2023-02-15T06:51:23.768Z,252.80
2023-02-15T06:53:50.682Z,346.47
2023-02-15T06:56:19.730Z,262.07
2023-02-15T06:58:47.004Z,386.27
2023-02-15T07:01:16.896Z,178.03
2023-02-15T07:03:43.781Z,148.20
2023-02-15T07:06:15.454Z,150.93
2023-02-15T07:08:44.936Z,240.50
2023-02-15T07:11:30.312Z,88.53
2023-02-15T07:13:57.727Z,164.50
2023-02-15T07:16:26.864Z,243.27
2023-02-15T07:18:53.813Z,124.33
2023-02-15T07:21:20.723Z,55.07
2023-02-15T07:23:47.602Z,95.87
2023-02-15T07:26:16.788Z,137.80
2023-02-15T07:28:43.763Z,255.17
2023-02-15T07:31:13.003Z,130.37
2023-02-15T07:33:42.501Z,252.53
2023-02-15T07:36:13.147Z,86.50
2023-02-15T07:38:42.359Z,146.33
2023-02-15T07:41:12.117Z,91.00
2023-02-15T07:43:42.222Z,146.83
2023-02-15T07:46:13.405Z,104.07
2023-02-15T07:48:41.878Z,88.13
2023-02-15T07:51:11.717Z,194.07
2023-02-15T07:53:39.742Z,214.50
2023-02-15T07:56:11.806Z,142.93
2023-02-15T07:58:53.689Z,167.33
2023-02-15T08:01:30.899Z,85.67
2023-02-15T08:04:00.735Z,50.03
2023-02-15T08:06:31.804Z,147.80
2023-02-15T08:08:58.856Z,193.10
2023-02-15T08:11:30.281Z,114.10
2023-02-15T08:14:16.173Z,91.53
2023-02-15T08:17:00.385Z,75.97
2023-02-15T08:19:35.509Z,170.00
2023-02-15T08:22:13.532Z,147.80
2023-02-15T08:24:40.695Z,95.00
2023-02-15T08:27:12.146Z,154.07
2023-02-15T08:29:43.088Z,118.63
2023-02-15T08:32:13.221Z,49.60
2023-02-15T08:34:44.975Z,42.77
2023-02-15T08:37:11.937Z,52.23
2023-02-15T08:39:43.787Z,45.47
2023-02-15T08:42:10.692Z,58.13
2023-02-15T08:44:37.616Z,65.10
2023-02-15T08:47:07.071Z,107.90
2023-02-15T08:49:33.958Z,70.00
2023-02-15T08:52:05.332Z,45.73
2023-02-15T08:54:32.277Z,47.70
2023-02-15T08:57:01.428Z,37.07
2023-02-15T08:59:28.415Z,63.67
2023-02-15T09:01:56.219Z,59.40
2023-02-15T09:04:25.750Z,47.33
2023-02-15T09:06:53.255Z,52.23
2023-02-15T09:09:20.803Z,71.57
2023-02-15T09:11:54.566Z,31.70
2023-02-15T09:14:25.936Z,33.23
2023-02-15T09:16:56.315Z,36.47
2023-02-15T09:19:24.688Z,62.93
2023-02-15T09:21:53.839Z,52.13
2023-02-15T09:24:20.818Z,32.13
2023-02-15T09:26:52.484Z,39.27
2023-02-15T09:29:26.411Z,32.83
2023-02-15T09:31:54.594Z,34.17
2023-02-15T09:34:24.897Z,33.17
2023-02-15T09:36:53.078Z,29.70
2023-02-15T09:39:24.878Z,35.30
2023-02-15T09:42:35.787Z,88.23
2023-02-15T09:45:24.131Z,36.00
2023-02-15T09:48:30.621Z,33.10
2023-02-15T09:52:08.862Z,30.67
2023-02-15T09:54:53.475Z,49.73
2023-02-15T09:57:39.279Z,33.43
2023-02-15T10:00:39.506Z,30.53
2023-02-15T10:03:40.070Z,28.43
2023-02-15T10:06:32.302Z,33.27
2023-02-15T10:09:26.837Z,36.00
2023-02-15T10:12:02.458Z,33.23
2023-02-15T10:14:50.431Z,32.53
2023-02-15T10:17:41.636Z,29.90
2023-02-15T10:20:30.020Z,28.20
2023-02-15T10:23:08.957Z,30.77
2023-02-15T10:25:44.527Z,30.03
2023-02-15T10:28:52.656Z,29.17
2023-02-15T10:31:46.359Z,32.07
2023-02-15T10:34:36.814Z,27.40
2023-02-15T10:37:32.351Z,32.57
2023-02-15T10:40:23.432Z,28.33
2023-02-15T10:43:05.296Z,28.70
2023-02-15T10:45:53.532Z,29.90
2023-02-15T10:48:48.442Z,30.33
2023-02-15T10:51:51.414Z,29.80
2023-02-15T10:55:00.636Z,31.07
2023-02-15T10:58:03.475Z,30.27
2023-02-15T11:00:46.819Z,27.57
2023-02-15T11:03:43.780Z,30.47
2023-02-15T11:06:15.853Z,29.30
2023-02-15T11:08:49.140Z,27.60
2023-02-15T11:11:36.081Z,28.57
2023-02-15T11:14:15.937Z,27.40
2023-02-15T11:16:50.060Z,26.77
2023-02-15T11:19:57.937Z,24.40
2023-02-15T11:22:29.509Z,28.00
2023-02-15T11:25:01.360Z,25.17
2023-02-15T11:27:34.189Z,24.07
2023-02-15T11:30:15.900Z,23.63
2023-02-15T11:32:53.875Z,22.23
2023-02-15T11:35:45.180Z,26.60
2023-02-15T11:38:20.918Z,22.37
2023-02-15T11:41:04.816Z,22.43
2023-02-15T11:43:45.761Z,20.10
2023-02-15T11:46:14.486Z,19.80
2023-02-15T11:48:46.381Z,23.93
2023-02-15T11:51:19.072Z,24.73
2023-02-15T11:53:49.964Z,21.87
2023-02-15T11:56:22.619Z,20.37
2023-02-15T11:59:00.237Z,20.10
2023-02-15T12:01:46.023Z,18.70
2023-02-15T12:04:30.364Z,24.63
2023-02-15T12:07:16.237Z,20.00
2023-02-15T12:10:21.022Z,18.60
2023-02-15T12:12:48.237Z,24.13
2023-02-15T12:15:17.767Z,19.77
2023-02-15T12:17:54.437Z,18.93
2023-02-15T12:20:21.279Z,20.10
2023-02-15T12:22:52.480Z,19.53
2023-02-15T12:25:38.381Z,18.70
2023-02-15T12:28:26.708Z,18.43
2023-02-15T12:30:58.417Z,17.57
2023-02-15T12:33:32.288Z,18.67
2023-02-15T12:36:21.943Z,18.70
2023-02-15T12:39:15.032Z,18.33
2023-02-15T12:42:25.383Z,19.73
2023-02-15T12:45:02.238Z,19.73
2023-02-15T12:47:34.058Z,17.67
2023-02-15T12:50:24.353Z,21.00
2023-02-15T12:53:03.584Z,20.03
2023-02-15T12:55:31.812Z,19.63
2023-02-15T12:58:24.274Z,18.77
2023-02-15T13:01:04.292Z,16.80
2023-02-15T13:03:31.618Z,16.27
2023-02-15T13:06:02.167Z,16.97
2023-02-15T13:08:34.913Z,17.43
2023-02-15T13:11:11.765Z,16.77
2023-02-15T13:14:03.838Z,17.73
2023-02-15T13:16:38.582Z,17.20
2023-02-15T13:19:22.749Z,19.40
2023-02-15T13:21:53.078Z,18.33
2023-02-15T13:24:33.568Z,17.67
2023-02-15T13:27:14.600Z,18.57
2023-02-15T13:29:53.414Z,20.70
2023-02-15T13:32:39.122Z,18.37
2023-02-15T13:35:09.637Z,20.40
2023-02-15T13:38:04.197Z,16.27
2023-02-15T13:40:57.241Z,19.20
2023-02-15T13:43:35.360Z,17.47
2023-02-15T13:46:20.892Z,24.90
2023-02-15T13:49:14.238Z,20.30
2023-02-15T13:52:00.125Z,22.90
2023-02-15T13:54:32.049Z,25.40
2023-02-15T13:57:28.010Z,20.77
2023-02-15T14:00:12.807Z,20.40
2023-02-15T14:03:00.763Z,19.30
2023-02-15T14:05:33.737Z,23.07
2023-02-15T14:08:11.567Z,19.70
2023-02-15T14:11:03.624Z,25.13
2023-02-15T14:13:45.667Z,22.73
2023-02-15T14:16:38.938Z,24.33
2023-02-15T14:19:23.002Z,22.57
2023-02-15T14:22:12.027Z,19.83
2023-02-15T14:25:22.800Z,23.43
2023-02-15T14:28:11.805Z,27.70
2023-02-15T14:30:42.443Z,26.30
2023-02-15T14:33:22.353Z,24.70
2023-02-15T14:35:49.793Z,22.23
2023-02-15T14:39:32.663Z,28.87
2023-02-15T14:42:14.944Z,25.43
2023-02-15T14:44:59.519Z,25.50
2023-02-15T14:47:41.068Z,27.23
2023-02-15T14:50:38.404Z,23.90
2023-02-15T14:53:36.861Z,28.03
2023-02-15T14:56:20.865Z,28.57
2023-02-15T14:58:53.393Z,26.80
2023-02-15T15:01:36.201Z,26.50
2023-02-15T15:04:14.506Z,30.53
2023-02-15T15:07:08.926Z,27.90
2023-02-15T15:09:41.884Z,30.10
2023-02-15T15:12:27.021Z,32.50
2023-02-15T15:14:55.223Z,33.53
2023-02-15T15:17:57.269Z,29.73
2023-02-15T15:20:26.868Z,28.87
2023-02-15T15:23:16.524Z,34.47
2023-02-15T15:25:51.006Z,31.13
2023-02-15T15:28:59.717Z,35.77
2023-02-15T15:31:51.341Z,31.57
2023-02-15T15:35:02.376Z,41.43
2023-02-15T15:37:41.177Z,34.50
2023-02-15T15:40:27.674Z,35.60
2023-02-15T15:43:34.975Z,37.40
2023-02-15T15:46:13.001Z,34.50
2023-02-15T15:48:44.933Z,39.30
2023-02-15T15:51:37.792Z,39.93
2023-02-15T15:54:07.579Z,38.50
2023-02-15T15:56:36.924Z,38.27
2023-02-15T15:59:13.490Z,38.13
2023-02-15T16:01:48.422Z,38.27
2023-02-15T16:04:26.220Z,42.23
2023-02-15T16:06:53.837Z,39.67
2023-02-15T16:09:25.342Z,44.80
2023-02-15T16:12:03.518Z,40.50
2023-02-15T16:14:41.812Z,43.80
2023-02-15T16:17:21.804Z,42.43
2023-02-15T16:19:51.382Z,39.90
2023-02-15T16:22:27.585Z,42.10
2023-02-15T16:25:31.378Z,34.70
2023-02-15T16:28:07.074Z,42.57
2023-02-15T16:30:40.488Z,41.27
2023-02-15T16:33:16.950Z,39.63
2023-02-15T16:36:04.019Z,46.77
2023-02-15T16:38:59.664Z,46.77
2023-02-15T16:41:31.083Z,37.67
2023-02-15T16:44:12.337Z,38.83
2023-02-15T16:46:45.061Z,42.50
2023-02-15T16:49:30.086Z,44.57
2023-02-15T16:52:03.089Z,42.30
2023-02-15T16:54:34.738Z,38.67
2023-02-15T16:57:02.634Z,42.90
2023-02-15T16:59:40.541Z,40.60
2023-02-15T17:02:32.001Z,45.60
2023-02-15T17:05:13.000Z,47.70
2023-02-15T17:07:42.388Z,49.37
2023-02-15T17:10:37.531Z,43.13
2023-02-15T17:13:15.427Z,92.70
2023-02-15T17:16:06.878Z,87.53
2023-02-15T17:18:47.229Z,62.70
2023-02-15T17:21:32.774Z,49.90
2023-02-15T17:24:07.282Z,45.50
2023-02-15T17:26:37.647Z,52.67
2023-02-15T17:29:42.672Z,53.37
2023-02-15T17:32:28.069Z,49.03
2023-02-15T17:35:04.005Z,51.70
2023-02-15T17:37:36.755Z,50.33
2023-02-15T17:40:28.351Z,52.20
2023-02-15T17:42:58.699Z,53.53
2023-02-15T17:45:41.896Z,53.17
2023-02-15T17:48:35.887Z,52.53
2023-02-15T17:51:06.652Z,50.03
2023-02-15T17:53:34.765Z,47.67
2023-02-15T17:56:10.457Z,45.00
2023-02-15T17:58:40.548Z,48.03
2023-02-15T18:01:37.474Z,46.07
2023-02-15T18:04:23.920Z,49.73
2023-02-15T18:07:09.857Z,48.27
2023-02-15T18:09:59.848Z,51.43
2023-02-15T18:12:33.499Z,48.17
2023-02-15T18:15:01.683Z,49.83
2023-02-15T18:17:43.008Z,58.27
2023-02-15T18:20:28.427Z,54.23
2023-02-15T18:22:55.735Z,59.40
2023-02-15T18:25:25.509Z,48.83
2023-02-15T18:27:55.028Z,57.20
2023-02-15T18:30:25.578Z,53.23
2023-02-15T18:32:57.748Z,46.10
2023-02-15T18:35:33.742Z,56.63
2023-02-15T18:38:02.020Z,46.87
2023-02-15T18:40:31.440Z,52.77
2023-02-15T18:43:00.813Z,54.20
2023-02-15T18:45:33.055Z,53.23
2023-02-15T18:48:00.258Z,58.47
2023-02-15T18:50:33.377Z,55.10
2023-02-15T18:53:04.778Z,60.80
2023-02-15T18:55:37.328Z,49.40
2023-02-15T18:58:04.967Z,52.33
2023-02-15T19:00:34.749Z,54.87
2023-02-15T19:03:06.820Z,64.43
2023-02-15T19:05:34.265Z,61.00
2023-02-15T19:08:01.993Z,64.20
2023-02-15T19:10:34.453Z,64.73
2023-02-15T19:13:04.617Z,55.73
2023-02-15T19:15:31.711Z,52.87
2023-02-15T19:18:00.888Z,50.00
2023-02-15T19:20:42.911Z,54.40
2023-02-15T19:23:21.099Z,53.20
2023-02-15T19:25:49.719Z,52.23
2023-02-15T19:28:28.915Z,50.37
2023-02-15T19:30:55.899Z,53.67
2023-02-15T19:33:23.810Z,52.80
2023-02-15T19:35:56.322Z,48.50
2023-02-15T19:38:32.347Z,53.40
2023-02-15T19:41:11.496Z,52.30
2023-02-15T19:43:38.748Z,54.83
2023-02-15T19:46:05.992Z,52.80
2023-02-15T19:48:33.083Z,54.70
2023-02-15T19:51:03.744Z,52.00
2023-02-15T19:53:30.686Z,57.17
2023-02-15T19:56:00.925Z,55.40
2023-02-15T19:58:30.178Z,61.77
2023-02-15T20:00:57.074Z,53.00
2023-02-15T20:03:24.037Z,56.90
2023-02-15T20:05:50.975Z,58.90
2023-02-15T20:08:22.286Z,51.93
2023-02-15T20:10:50.202Z,53.93
2023-02-15T20:13:19.624Z,48.50
2023-02-15T20:15:51.791Z,57.43
2023-02-15T20:18:21.108Z,49.00
2023-02-15T20:20:56.213Z,51.00
2023-02-15T20:23:25.032Z,50.37
2023-02-15T20:25:54.270Z,49.50
2023-02-15T20:28:24.726Z,49.67
2023-02-15T20:30:52.564Z,45.93
2023-02-15T20:33:23.437Z,51.70
2023-02-15T20:35:51.333Z,57.53
2023-02-15T20:38:29.382Z,52.53
2023-02-15T20:41:17.699Z,49.70
2023-02-15T20:43:44.720Z,47.93
2023-02-15T20:46:11.803Z,49.50
2023-02-15T20:48:38.792Z,52.03
2023-02-15T20:51:09.336Z,49.87
2023-02-15T20:53:36.367Z,53.47
2023-02-15T20:56:03.725Z,48.70
2023-02-15T20:58:31.083Z,55.83
2023-02-15T21:00:59.399Z,61.53
2023-02-15T21:03:31.025Z,47.90
2023-02-15T21:06:01.847Z,49.13
2023-02-15T21:08:35.770Z,51.57
2023-02-15T21:11:07.856Z,48.83
2023-02-15T21:13:37.467Z,68.00
2023-02-15T21:16:04.644Z,49.40
2023-02-15T21:18:34.521Z,45.80
2023-02-15T21:21:06.364Z,49.53
2023-02-15T21:23:41.322Z,50.43
2023-02-15T21:26:19.821Z,47.43
2023-02-15T21:28:47.862Z,49.77
2023-02-15T21:31:26.428Z,43.60
2023-02-15T21:33:55.892Z,44.37
2023-02-15T21:36:25.139Z,44.90
2023-02-15T21:38:54.560Z,42.83
2023-02-15T21:41:42.429Z,43.80
2023-02-15T21:44:40.541Z,48.07
2023-02-15T21:47:47.093Z,48.13
2023-02-15T21:51:03.701Z,45.33
2023-02-15T21:53:37.327Z,43.83
2023-02-15T21:56:14.701Z,42.53
2023-02-15T21:58:41.666Z,39.60
2023-02-15T22:01:29.905Z,52.00
2023-02-15T22:03:58.722Z,40.97
2023-02-15T22:06:28.188Z,46.53
2023-02-15T22:08:55.077Z,45.03
2023-02-15T22:11:22.630Z,35.43
2023-02-15T22:13:50.724Z,41.73
2023-02-15T22:16:20.551Z,39.47
2023-02-15T22:18:48.173Z,43.17
2023-02-15T22:21:19.167Z,47.13
2023-02-15T22:23:47.148Z,40.10
2023-02-15T22:26:27.831Z,46.63
2023-02-15T22:29:01.882Z,39.00
2023-02-15T22:31:33.534Z,38.07
2023-02-15T22:34:02.899Z,37.13
2023-02-15T22:36:33.285Z,43.20
2023-02-15T22:39:00.204Z,41.53
2023-02-15T22:41:32.987Z,39.60
2023-02-15T22:44:00.214Z,42.67
2023-02-15T22:46:29.485Z,39.93
2023-02-15T22:48:58.394Z,42.73
2023-02-15T22:51:25.514Z,40.77
2023-02-15T22:53:54.551Z,40.50
2023-02-15T22:56:43.710Z,39.80
2023-02-15T22:59:24.526Z,39.63
2023-02-15T23:01:51.766Z,34.10
2023-02-15T23:04:22.337Z,40.07
2023-02-15T23:06:49.811Z,40.23
2023-02-15T23:09:17.078Z,36.47
2023-02-15T23:11:46.767Z,35.00
2023-02-15T23:14:36.246Z,36.10
2023-02-15T23:17:05.683Z,41.60
2023-02-15T23:19:35.221Z,32.30
2023-02-15T23:22:02.704Z,35.67
2023-02-15T23:24:34.531Z,34.47
2023-02-15T23:27:24.148Z,37.20
2023-02-15T23:29:53.551Z,33.80
2023-02-15T23:32:23.265Z,48.73
2023-02-15T23:34:53.314Z,35.37
2023-02-15T23:37:22.284Z,33.90
2023-02-15T23:40:10.136Z,33.47
2023-02-15T23:42:40.322Z,33.20
2023-02-15T23:45:22.758Z,33.90
2023-02-15T23:48:09.141Z,36.50
2023-02-15T23:50:37.433Z,36.13
2023-02-15T23:53:09.457Z,30.70
2023-02-15T23:55:41.416Z,35.23
2023-02-15T23:58:19.761Z,36.10
